Time;durP1;ratioP1;P1;durP2;ratioP2;P2;SDS_P1;SDS_P2;PMS_P1;PMS_P2;Temp;Humidity;BMP_temperature;BMP_pressure;BME280_temperature;BME280_humidity;BME280_pressure;Samples;Min_cycle;Max_cycle;Signal;HPM_P1;HPM_P2
2021/05/07 00:00:14;;;;;;;2.30;2.10;;;10.50;1.00;;;;;;5077773;28;20210;-63
2021/05/07 00:02:40;;;;;;;2.93;1.90;;;10.50;1.00;;;;;;5080073;28;20238;-63
2021/05/07 00:05:06;;;;;;;2.30;2.10;;;10.50;1.00;;;;;;5078009;28;20945;-64
2021/05/07 00:07:32;;;;;;;2.50;2.30;;;10.40;1.00;;;;;;5079844;28;20717;-63
2021/05/07 00:09:58;;;;;;;2.07;1.97;;;10.40;1.00;;;;;;5087509;28;20536;-64
2021/05/07 00:12:23;;;;;;;3.97;1.80;;;10.40;1.00;;;;;;5067654;28;20463;-63
2021/05/07 00:14:49;;;;;;;5.70;2.27;;;10.50;1.00;;;;;;5081219;28;20643;-63
2021/05/07 00:17:14;;;;;;;2.07;1.97;;;10.60;1.00;;;;;;5065021;28;20700;-63
2021/05/07 00:19:40;;;;;;;2.43;2.23;;;10.60;1.00;;;;;;5067592;28;20198;-64
2021/05/07 00:22:05;;;;;;;2.80;2.40;;;10.70;1.00;;;;;;5066558;28;20549;-64
2021/05/07 00:24:31;;;;;;;2.73;2.40;;;10.70;1.00;;;;;;5071169;28;20198;-64
2021/05/07 00:26:56;;;;;;;2.27;2.07;;;10.60;1.00;;;;;;5070491;28;20587;-64
2021/05/07 00:29:22;;;;;;;3.80;2.10;;;10.50;1.00;;;;;;5072964;28;20226;-63
2021/05/07 00:31:48;;;;;;;2.50;2.30;;;;;;;;;;5084030;28;20549;-64
2021/05/07 00:34:13;;;;;;;3.77;2.50;;;10.60;1.00;;;;;;5078069;28;20180;-63
2021/05/07 00:36:39;;;;;;;5.10;2.83;;;10.60;1.00;;;;;;5069386;28;20923;-64
2021/05/07 00:39:05;;;;;;;4.13;3.50;;;10.70;1.00;;;;;;5082092;28;20192;-63
2021/05/07 00:41:30;;;;;;;3.07;2.80;;;10.70;1.00;;;;;;5084176;28;20213;-64
2021/05/07 00:43:56;;;;;;;2.70;2.50;;;10.60;1.00;;;;;;5069584;28;20178;-64
2021/05/07 00:46:22;;;;;;;3.43;3.03;;;10.50;1.00;;;;;;5070066;28;20182;-64
2021/05/07 00:48:47;;;;;;;4.50;3.53;;;10.40;1.00;;;;;;5070699;28;20480;-64
2021/05/07 00:51:14;;;;;;;3.10;2.90;;;10.50;1.00;;;;;;5078568;28;20211;-63
2021/05/07 00:53:40;;;;;;;3.70;3.40;;;10.50;1.00;;;;;;5083583;28;20205;-63
2021/05/07 00:56:05;;;;;;;4.83;3.53;;;10.40;1.00;;;;;;5085235;28;20846;-64
2021/05/07 00:58:31;;;;;;;4.17;3.60;;;10.40;1.00;;;;;;5073125;28;20233;-63
2021/05/07 01:00:57;;;;;;;3.03;2.77;;;10.30;1.00;;;;;;5076925;28;20631;-64
2021/05/07 01:03:22;;;;;;;3.37;2.90;;;10.20;1.00;;;;;;5072701;28;20186;-64
2021/05/07 01:05:48;;;;;;;3.40;3.10;;;10.30;1.00;;;;;;5069355;28;20201;-64
2021/05/07 01:08:15;;;;;;;3.60;3.27;;;10.30;1.00;;;;;;5073548;28;20699;-63
2021/05/07 01:10:41;;;;;;;5.50;3.57;;;10.40;1.00;;;;;;5081270;28;20178;-64
2021/05/07 01:13:06;;;;;;;4.77;3.40;;;10.30;1.00;;;;;;5081907;28;20448;-63
2021/05/07 01:15:32;;;;;;;3.00;2.73;;;10.30;1.00;;;;;;5070112;28;20187;-64
2021/05/07 01:17:58;;;;;;;3.97;3.50;;;10.30;1.00;;;;;;5073397;28;20294;-63
2021/05/07 01:20:25;;;;;;;4.43;4.03;;;10.30;1.00;;;;;;5068443;28;20198;-63
2021/05/07 01:22:56;;;;;;;3.87;3.47;;;10.30;1.00;;;;;;5068914;28;20476;-63
2021/05/07 01:25:25;;;;;;;3.93;3.63;;;10.40;1.00;;;;;;5082006;28;20433;-64
2021/05/07 01:27:53;;;;;;;4.60;4.20;;;10.40;1.00;;;;;;5076306;28;20467;-63
2021/05/07 01:30:24;;;;;;;5.10;4.60;;;10.30;1.00;;;;;;5074910;28;20459;-64
2021/05/07 01:32:51;;;;;;;4.40;4.00;;;10.20;1.00;;;;;;5077571;28;20463;-63
2021/05/07 01:35:20;;;;;;;4.80;4.10;;;10.20;1.00;;;;;;5081329;28;20430;-63
2021/05/07 01:37:48;;;;;;;5.50;4.03;;;10.20;1.00;;;;;;5080555;28;20436;-63
2021/05/07 01:40:26;;;;;;;5.20;4.70;;;10.30;1.00;;;;;;5073134;28;20498;-63
2021/05/07 01:42:53;;;;;;;4.10;3.70;;;10.40;1.00;;;;;;5073090;28;20440;-62
2021/05/07 01:45:24;;;;;;;4.67;4.17;;;10.40;1.00;;;;;;5084715;28;20432;-63
2021/05/07 01:47:50;;;;;;;4.10;3.57;;;10.40;1.00;;;;;;5080759;28;20460;-63
2021/05/07 01:50:21;;;;;;;4.90;4.47;;;10.40;1.00;;;;;;5077103;28;20968;-63
2021/05/07 01:52:47;;;;;;;4.30;3.83;;;10.40;1.00;;;;;;5074094;28;20559;-63
2021/05/07 01:55:16;;;;;;;4.37;3.70;;;10.30;1.00;;;;;;5085063;28;20519;-63
2021/05/07 01:57:42;;;;;;;4.17;3.77;;;10.20;1.00;;;;;;5078920;28;20273;-63
2021/05/07 02:00:10;;;;;;;4.63;4.23;;;10.20;1.00;;;;;;5068734;28;20512;-64
2021/05/07 02:02:36;;;;;;;4.17;3.77;;;10.20;1.00;;;;;;5075558;28;20444;-63
2021/05/07 02:05:03;;;;;;;6.20;4.20;;;10.20;1.00;;;;;;5071738;28;20425;-58
2021/05/07 02:07:29;;;;;;;5.20;4.50;;;10.30;1.00;;;;;;5070737;28;20232;-58
2021/05/07 02:09:55;;;;;;;4.77;4.30;;;10.40;1.00;;;;;;5078680;28;20444;-58
2021/05/07 02:12:20;;;;;;;4.27;3.87;;;10.50;1.00;;;;;;5072316;28;20264;-58
2021/05/07 02:14:46;;;;;;;4.37;4.03;;;10.40;1.00;;;;;;5073713;28;20228;-58
2021/05/07 02:17:11;;;;;;;4.93;4.53;;;10.40;1.00;;;;;;5070201;28;20190;-59
2021/05/07 02:19:37;;;;;;;4.17;3.83;;;10.40;1.00;;;;;;5071830;28;20255;-58
2021/05/07 02:22:03;;;;;;;3.77;3.47;;;10.60;1.00;;;;;;5072559;28;20280;-58
2021/05/07 02:24:28;;;;;;;4.30;3.90;;;10.50;1.00;;;;;;5093165;28;20601;-58
2021/05/07 02:26:54;;;;;;;3.90;3.60;;;10.50;1.00;;;;;;5087936;28;20497;-59
2021/05/07 02:29:20;;;;;;;4.30;3.90;;;10.40;1.00;;;;;;5071679;28;20233;-58
2021/05/07 02:31:46;;;;;;;4.33;3.63;;;10.30;1.00;;;;;;5072218;28;20190;-58
2021/05/07 02:34:12;;;;;;;6.20;3.40;;;10.20;1.00;;;;;;5072521;28;20443;-58
2021/05/07 02:36:39;;;;;;;3.67;3.37;;;10.20;1.00;;;;;;5071042;28;20573;-58
2021/05/07 02:39:06;;;;;;;4.43;4.03;;;10.20;1.00;;;;;;5072800;28;20485;-58
2021/05/07 02:41:33;;;;;;;4.50;3.80;;;10.20;1.00;;;;;;5072683;28;20547;-59
2021/05/07 02:43:58;;;;;;;4.77;4.37;;;10.20;1.00;;;;;;5069211;28;20444;-58
2021/05/07 02:46:24;;;;;;;4.70;4.27;;;10.30;1.00;;;;;;5072122;28;20435;-58
2021/05/07 02:48:50;;;;;;;5.93;4.40;;;10.20;1.00;;;;;;5070337;28;20214;-57
2021/05/07 02:51:16;;;;;;;4.33;3.93;;;10.20;1.00;;;;;;5073048;28;20443;-57
2021/05/07 02:53:41;;;;;;;4.37;3.90;;;10.10;1.00;;;;;;5080666;28;20179;-57
2021/05/07 02:56:07;;;;;;;6.00;4.23;;;9.90;1.00;;;;;;5066330;28;20533;-58
2021/05/07 02:58:32;;;;;;;6.63;4.40;;;10.00;1.00;;;;;;5083111;28;20268;-58
2021/05/07 03:00:58;;;;;;;4.33;3.93;;;9.90;1.00;;;;;;5072529;28;20194;-58
2021/05/07 03:03:23;;;;;;;4.30;3.63;;;9.90;1.00;;;;;;5071197;28;20187;-58
2021/05/07 03:05:49;;;;;;;3.93;3.60;;;9.80;1.00;;;;;;5071674;28;20188;-57
2021/05/07 03:08:21;;;;;;;4.57;4.13;;;9.80;1.00;;;;;;5073957;28;20673;-57
2021/05/07 03:10:47;;;;;;;4.23;3.83;;;9.80;1.00;;;;;;5075412;28;20238;-58
2021/05/07 03:13:12;;;;;;;4.80;4.10;;;9.70;1.00;;;;;;5071979;28;20499;-58
2021/05/07 03:15:38;;;;;;;5.73;4.17;;;9.60;1.00;;;;;;5071775;28;20180;-58
2021/05/07 03:18:04;;;;;;;4.60;3.67;;;9.60;1.00;;;;;;5065288;28;20245;-58
2021/05/07 03:20:30;;;;;;;4.80;4.40;;;9.60;1.00;;;;;;5072131;28;21024;-58
2021/05/07 03:22:55;;;;;;;5.40;4.10;;;9.60;1.00;;;;;;5070570;28;20643;-58
2021/05/07 03:25:21;;;;;;;4.60;3.80;;;9.70;1.00;;;;;;5085122;28;20212;-58
2021/05/07 03:27:46;;;;;;;7.30;4.60;;;9.60;1.00;;;;;;5088273;28;20193;-58
2021/05/07 03:30:13;;;;;;;4.13;3.73;;;9.60;1.00;;;;;;5071124;28;20223;-58
2021/05/07 03:32:38;;;;;;;4.20;3.80;;;9.50;1.00;;;;;;5070595;28;20169;-58
2021/05/07 03:35:05;;;;;;;3.97;3.40;;;9.50;1.00;;;;;;5071383;28;20440;-58
2021/05/07 03:37:30;;;;;;;2.97;2.77;;;9.50;1.00;;;;;;5071556;28;20588;-57
2021/05/07 03:39:56;;;;;;;2.87;2.57;;;9.30;1.00;;;;;;5071759;28;20462;-57
2021/05/07 03:42:21;;;;;;;3.37;3.07;;;9.20;1.00;;;;;;5067470;28;20225;-57
2021/05/07 03:44:47;;;;;;;3.37;3.00;;;9.20;1.00;;;;;;5088116;28;20479;-59
2021/05/07 03:47:12;;;;;;;4.50;4.03;;;9.20;1.00;;;;;;5074200;28;20189;-57
2021/05/07 03:49:38;;;;;;;5.13;4.37;;;9.10;1.00;;;;;;5081342;28;20307;-58
2021/05/07 03:52:04;;;;;;;4.50;4.10;;;9.20;1.00;;;;;;5071566;28;20254;-58
2021/05/07 03:54:29;;;;;;;4.70;3.80;;;9.30;1.00;;;;;;5071595;28;20190;-58
2021/05/07 03:56:55;;;;;;;5.43;4.93;;;9.30;1.00;;;;;;5071303;28;20469;-58
2021/05/07 03:59:21;;;;;;;5.60;5.10;;;10.40;1.00;;;;;;5071446;28;20182;-58
2021/05/07 04:01:47;;;;;;;5.40;4.90;;;9.40;1.00;;;;;;5082721;28;20185;-58
2021/05/07 04:04:12;;;;;;;7.00;6.23;;;9.30;1.00;;;;;;5068549;28;20537;-58
2021/05/07 04:06:38;;;;;;;7.23;6.43;;;9.30;1.00;;;;;;5070645;28;20179;-60
2021/05/07 04:09:11;;;;;;;6.73;5.87;;;9.10;1.00;;;;;;5071221;28;20205;-60
2021/05/07 04:11:53;;;;;;;6.47;5.53;;;9.10;1.00;;;;;;5071363;28;20538;-60
2021/05/07 04:14:19;;;;;;;6.53;5.83;;;9.00;1.00;;;;;;5071971;28;20935;-60
2021/05/07 04:16:44;;;;;;;9.40;5.53;;;9.10;1.00;;;;;;5085249;28;20493;-60
2021/05/07 04:19:10;;;;;;;8.50;5.90;;;9.10;1.00;;;;;;5073665;28;20537;-60
2021/05/07 04:21:36;;;;;;;8.50;6.70;;;9.10;1.00;;;;;;5070538;28;20180;-60
2021/05/07 04:24:02;;;;;;;6.13;5.47;;;9.20;1.00;;;;;;5070519;28;20435;-60
2021/05/07 04:26:28;;;;;;;6.23;5.57;;;9.40;1.00;;;;;;5073703;28;20731;-59
2021/05/07 04:28:53;;;;;;;7.00;5.40;;;9.40;1.00;;;;;;5072718;28;20463;-59
2021/05/07 04:31:19;;;;;;;6.43;5.30;;;9.50;1.00;;;;;;5068321;28;20693;-59
2021/05/07 04:33:44;;;;;;;6.33;5.40;;;9.60;1.00;;;;;;5077008;28;20184;-59
2021/05/07 04:36:10;;;;;;;7.83;5.57;;;9.80;1.00;;;;;;5073139;28;20188;-60
2021/05/07 04:38:37;;;;;;;7.50;5.60;;;9.80;1.00;;;;;;5075812;28;20188;-59
2021/05/07 04:41:03;;;;;;;6.00;5.17;;;9.80;1.00;;;;;;5089996;28;20180;-60
2021/05/07 04:43:29;;;;;;;6.57;5.93;;;9.60;1.00;;;;;;5072434;28;20475;-59
2021/05/07 04:45:54;;;;;;;7.40;5.50;;;9.50;1.00;;;;;;5070923;28;20487;-59
2021/05/07 04:48:20;;;;;;;7.43;6.47;;;9.50;1.00;;;;;;5078126;28;20204;-58
2021/05/07 04:50:45;;;;;;;8.67;6.63;;;9.30;1.00;;;;;;5071488;28;20185;-59
2021/05/07 04:53:11;;;;;;;7.60;6.80;;;9.30;1.00;;;;;;5072923;28;20279;-61
2021/05/07 04:55:37;;;;;;;8.30;6.33;;;9.30;1.00;;;;;;5063619;28;20684;-59
2021/05/07 04:58:03;;;;;;;5.90;5.17;;;9.30;1.00;;;;;;5065036;28;20655;-59
2021/05/07 05:00:29;;;;;;;9.40;6.40;;;9.30;1.00;;;;;;5070507;28;20460;-59
2021/05/07 05:02:54;;;;;;;6.33;5.70;;;9.30;1.00;;;;;;5068880;28;20201;-59
2021/05/07 05:05:20;;;;;;;4.93;4.43;;;9.30;1.00;;;;;;5075829;28;20387;-55
2021/05/07 05:07:52;;;;;;;5.80;4.80;;;9.30;1.00;;;;;;5085903;28;20209;-57
2021/05/07 05:10:19;;;;;;;7.20;4.90;;;9.50;1.00;;;;;;5070817;28;20181;-60
2021/05/07 05:12:45;;;;;;;6.80;5.40;;;9.50;1.00;;;;;;5077572;28;20446;-55
2021/05/07 05:15:11;;;;;;;6.07;5.47;;;9.60;1.00;;;;;;5094530;28;20428;-55
2021/05/07 05:17:37;;;;;;;16.40;14.70;;;9.70;1.00;;;;;;5081322;28;20313;-57
2021/05/07 05:20:06;;;;;;;6.77;5.63;;;9.70;1.00;;;;;;5074086;28;20481;-57
2021/05/07 05:22:31;;;;;;;6.67;5.13;;;9.80;1.00;;;;;;5071046;28;20215;-56
2021/05/07 05:24:58;;;;;;;6.30;5.70;;;9.70;1.00;;;;;;5071802;28;20448;-56
2021/05/07 05:27:24;;;;;;;7.30;6.10;;;9.60;1.00;;;;;;5076154;28;20260;-56
2021/05/07 05:29:49;;;;;;;6.27;4.37;;;9.70;1.00;;;;;;5075759;28;20471;-56
2021/05/07 05:32:15;;;;;;;5.50;5.00;;;9.70;1.00;;;;;;5075717;28;20547;-57
2021/05/07 05:34:40;;;;;;;5.80;5.30;;;9.70;1.00;;;;;;5073218;28;20183;-56
2021/05/07 05:37:06;;;;;;;10.10;6.00;;;9.80;1.00;;;;;;5073929;28;20183;-55
2021/05/07 05:39:31;;;;;;;6.43;5.83;;;9.90;1.00;;;;;;5072813;28;20269;-55
2021/05/07 05:42:00;;;;;;;6.90;6.20;;;9.80;1.00;;;;;;5060070;28;20545;-56
2021/05/07 05:44:25;;;;;;;8.73;5.47;;;9.90;1.00;;;;;;5074985;28;20197;-55
2021/05/07 05:46:51;;;;;;;6.90;6.20;;;10.00;1.00;;;;;;5092651;28;20440;-55
2021/05/07 05:49:17;;;;;;;7.10;6.37;;;10.00;1.00;;;;;;5073724;28;20212;-57
2021/05/07 05:51:42;;;;;;;6.43;5.83;;;10.00;1.00;;;;;;5082465;28;20263;-55
2021/05/07 05:54:08;;;;;;;8.07;7.27;;;9.90;1.00;;;;;;5069387;28;20187;-55
2021/05/07 05:56:34;;;;;;;7.97;6.53;;;10.00;1.00;;;;;;5073607;28;20177;-56
2021/05/07 05:58:59;;;;;;;8.43;7.63;;;9.90;1.00;;;;;;5076671;28;20175;-59
2021/05/07 06:01:25;;;;;;;7.83;6.83;;;9.90;1.00;;;;;;5070345;28;20178;-57
2021/05/07 06:03:51;;;;;;;7.43;6.70;;;9.90;1.00;;;;;;5070481;28;20178;-55
2021/05/07 06:06:16;;;;;;;8.67;7.00;;;10.00;1.00;;;;;;5070260;28;20180;-56
2021/05/07 06:08:42;;;;;;;7.23;6.47;;;10.10;1.00;;;;;;5072569;28;20228;-56
2021/05/07 06:11:08;;;;;;;8.60;6.47;;;10.20;1.00;;;;;;5070836;28;20276;-55
2021/05/07 06:13:34;;;;;;;7.70;6.83;;;10.40;1.00;;;;;;5069901;28;20218;-55
2021/05/07 06:15:59;;;;;;;8.17;6.30;;;10.60;1.00;;;;;;5074275;28;20646;-56
2021/05/07 06:18:25;;;;;;;8.30;7.50;;;10.70;1.00;;;;;;5070386;28;20455;-56
2021/05/07 06:20:51;;;;;;;8.00;7.20;;;10.80;1.00;;;;;;5069591;28;20695;-56
2021/05/07 06:23:16;;;;;;;8.70;6.90;;;10.80;1.00;;;;;;5070856;28;20244;-56
2021/05/07 06:25:42;;;;;;;7.63;6.93;;;10.80;1.00;;;;;;5073167;28;20669;-55
2021/05/07 06:28:08;;;;;;;8.80;7.33;;;10.80;1.00;;;;;;5070852;28;20687;-54
2021/05/07 06:30:33;;;;;;;9.00;7.77;;;10.70;1.00;;;;;;5070157;28;20241;-55
2021/05/07 06:32:59;;;;;;;8.00;7.20;;;10.60;1.00;;;;;;5069796;28;20736;-55
2021/05/07 06:35:24;;;;;;;8.37;7.10;;;10.50;1.00;;;;;;5071430;28;20640;-55
2021/05/07 06:37:50;;;;;;;8.00;7.20;;;10.30;1.00;;;;;;5070880;28;20280;-56
2021/05/07 06:40:16;;;;;;;8.40;7.60;;;10.10;1.00;;;;;;5082457;28;20192;-58
2021/05/07 06:42:42;;;;;;;7.57;6.70;;;10.10;1.00;;;;;;5069422;28;20430;-58
2021/05/07 06:45:10;;;;;;;7.93;7.13;;;10.10;1.00;;;;;;5079987;28;20441;-56
2021/05/07 06:47:36;;;;;;;9.80;7.40;;;10.00;1.00;;;;;;5071194;28;20184;-55
2021/05/07 06:50:01;;;;;;;7.00;6.30;;;9.90;1.00;;;;;;5072477;28;20476;-56
2021/05/07 06:52:27;;;;;;;6.70;5.90;;;9.90;1.00;;;;;;5072945;28;20882;-55
2021/05/07 06:54:52;;;;;;;5.73;5.13;;;9.90;1.00;;;;;;5070709;28;20188;-57
2021/05/07 06:57:18;;;;;;;5.73;5.10;;;;;;;;;;5071656;28;20251;-57
2021/05/07 06:59:47;;;;;;;4.57;4.17;;;9.90;1.00;;;;;;5070046;28;20195;-56
2021/05/07 07:02:14;;;;;;;5.00;4.50;;;9.90;1.00;;;;;;5080787;28;20444;-57
2021/05/07 07:04:39;;;;;;;4.73;3.97;;;9.90;1.00;;;;;;5072526;28;20492;-57
2021/05/07 07:07:06;;;;;;;4.80;4.30;;;9.90;1.00;;;;;;5074761;28;20434;-56
2021/05/07 07:09:31;;;;;;;4.50;4.10;;;10.00;1.00;;;;;;5069643;28;20209;-56
2021/05/07 07:11:57;;;;;;;5.40;4.17;;;10.10;1.00;;;;;;5064926;28;20859;-55
2021/05/07 07:14:22;;;;;;;4.50;4.10;;;10.00;1.00;;;;;;5076948;28;20189;-56
2021/05/07 07:16:48;;;;;;;4.57;3.93;;;9.90;1.00;;;;;;5071970;28;20187;-56
2021/05/07 07:19:13;;;;;;;5.10;4.40;;;10.00;1.00;;;;;;5068152;28;20189;-56
2021/05/07 07:21:39;;;;;;;4.73;3.90;;;10.20;1.00;;;;;;5070887;28;20181;-56
2021/05/07 07:24:05;;;;;;;4.57;4.17;;;10.40;1.00;;;;;;5072083;28;20190;-56
2021/05/07 07:26:31;;;;;;;4.30;3.80;;;10.30;1.00;;;;;;5074724;28;20185;-54
2021/05/07 07:28:56;;;;;;;3.97;3.60;;;10.10;1.00;;;;;;5086489;28;20501;-56
2021/05/07 07:31:22;;;;;;;5.97;3.10;;;10.00;1.00;;;;;;5070881;28;20188;-55
2021/05/07 07:33:49;;;;;;;4.00;3.60;;;10.10;1.00;;;;;;5070441;28;20201;-56
2021/05/07 07:36:14;;;;;;;5.60;3.83;;;10.20;1.00;;;;;;5080120;28;20490;-54
2021/05/07 07:38:40;;;;;;;4.23;3.83;;;10.50;1.00;;;;;;5087779;28;20472;-58
2021/05/07 07:41:06;;;;;;;3.83;3.40;;;10.60;1.00;;;;;;5071611;28;20669;-54
2021/05/07 07:43:32;;;;;;;4.30;3.90;;;10.60;1.00;;;;;;5070311;28;20230;-55
2021/05/07 07:45:58;;;;;;;4.40;4.00;;;10.70;1.00;;;;;;5066964;28;20200;-55
2021/05/07 07:48:24;;;;;;;5.00;3.97;;;10.60;1.00;;;;;;5070185;28;20460;-56
2021/05/07 07:50:49;;;;;;;4.20;3.80;;;10.60;1.00;;;;;;5080347;28;20187;-56
2021/05/07 07:53:15;;;;;;;5.27;4.77;;;10.90;1.00;;;;;;5089507;28;20185;-56
2021/05/07 07:55:40;;;;;;;5.60;5.10;;;10.90;1.00;;;;;;5070850;28;20628;-56
2021/05/07 07:58:08;;;;;;;4.73;4.30;;;11.00;1.00;;;;;;5085063;28;20193;-55
2021/05/07 08:00:33;;;;;;;6.60;5.97;;;10.90;1.00;;;;;;5091504;28;20204;-57
2021/05/07 08:02:59;;;;;;;7.13;6.43;;;10.90;1.00;;;;;;5083775;28;20531;-56
2021/05/07 08:05:24;;;;;;;7.47;6.50;;;10.90;1.00;;;;;;5075600;28;20267;-56
2021/05/07 08:07:50;;;;;;;8.23;7.43;;;10.50;1.00;;;;;;5071006;28;20190;-56
2021/05/07 08:10:18;;;;;;;6.80;6.20;;;10.20;1.00;;;;;;5078792;28;20539;-56
2021/05/07 08:12:43;;;;;;;7.47;6.87;;;10.20;1.00;;;;;;5083317;28;20196;-58
2021/05/07 08:15:10;;;;;;;7.73;7.03;;;10.20;1.00;;;;;;5073186;28;20433;-58
2021/05/07 08:17:36;;;;;;;7.70;7.00;;;10.30;1.00;;;;;;5067132;28;20185;-57
2021/05/07 08:20:06;;;;;;;7.33;6.63;;;10.40;1.00;;;;;;5070980;28;20447;-56
2021/05/07 08:22:32;;;;;;;6.00;5.50;;;10.30;1.00;;;;;;5071283;28;20962;-57
2021/05/07 08:24:57;;;;;;;6.10;5.60;;;10.40;1.00;;;;;;5068799;28;20644;-56
2021/05/07 08:27:24;;;;;;;4.87;4.47;;;10.30;1.00;;;;;;5070707;28;20188;-58
2021/05/07 08:29:50;;;;;;;4.80;4.50;;;10.30;1.00;;;;;;5074453;28;20226;-56
2021/05/07 08:32:15;;;;;;;5.80;5.30;;;10.40;1.00;;;;;;5069370;28;20482;-57
2021/05/07 08:34:43;;;;;;;4.80;4.40;;;10.40;1.00;;;;;;5070703;28;20536;-56
2021/05/07 08:37:10;;;;;;;4.53;4.13;;;10.60;1.00;;;;;;5075318;28;20511;-56
2021/05/07 08:39:36;;;;;;;3.93;3.50;;;10.70;1.00;;;;;;5074494;28;20446;-56
2021/05/07 08:42:03;;;;;;;3.10;2.90;;;10.40;1.00;;;;;;5075009;28;20776;-55
2021/05/07 08:44:29;;;;;;;3.73;3.43;;;10.70;1.00;;;;;;5073826;28;20448;-55
2021/05/07 08:46:55;;;;;;;4.30;3.00;;;10.70;1.00;;;;;;5074467;28;20791;-54
2021/05/07 08:49:23;;;;;;;3.23;2.83;;;10.80;1.00;;;;;;5079127;28;20204;-59
2021/05/07 08:51:48;;;;;;;4.23;3.30;;;10.80;1.00;;;;;;5094744;28;20446;-55
2021/05/07 08:54:14;;;;;;;3.13;2.93;;;10.60;1.00;;;;;;5074163;28;20535;-56
2021/05/07 08:56:40;;;;;;;3.23;3.03;;;10.80;1.00;;;;;;5079561;28;20176;-58
2021/05/07 08:59:06;;;;;;;3.20;3.00;;;10.80;1.00;;;;;;5072773;28;20183;-56
2021/05/07 09:01:58;;;;;;;3.47;3.27;;;10.80;1.00;;;;;;5073259;28;20806;-54
2021/05/07 09:04:24;;;;;;;3.07;2.77;;;10.90;1.00;;;;;;5073154;28;20480;-55
2021/05/07 09:06:52;;;;;;;3.13;2.90;;;10.80;1.00;;;;;;5072302;28;20487;-56
2021/05/07 09:09:25;;;;;;;2.97;2.77;;;11.10;1.00;;;;;;5074731;28;20232;-55
2021/05/07 09:11:51;;;;;;;2.27;2.17;;;11.00;1.00;;;;;;5074054;28;20437;-56
2021/05/07 09:14:17;;;;;;;2.60;2.40;;;10.60;1.00;;;;;;5072175;28;20449;-57
2021/05/07 09:16:49;;;;;;;3.13;2.90;;;10.60;1.00;;;;;;5071640;28;20451;-56
2021/05/07 09:19:25;;;;;;;2.97;2.70;;;10.80;1.00;;;;;;5072972;28;20444;-54
2021/05/07 09:21:51;;;;;;;3.27;3.03;;;11.30;1.00;;;;;;5071489;28;20486;-57
2021/05/07 09:24:18;;;;;;;3.33;3.03;;;11.00;1.00;;;;;;5071932;28;20443;-53
2021/05/07 09:26:48;;;;;;;3.13;2.93;;;10.80;1.00;;;;;;5072702;28;20956;-55
2021/05/07 09:29:19;;;;;;;5.57;3.40;;;10.60;1.00;;;;;;5073137;28;20505;-55
2021/05/07 09:31:47;;;;;;;4.20;3.90;;;10.60;1.00;;;;;;5074168;28;20539;-56
2021/05/07 09:34:13;;;;;;;3.50;3.30;;;10.70;1.00;;;;;;5072413;28;20458;-54
2021/05/07 09:36:39;;;;;;;3.30;3.10;;;10.80;1.00;;;;;;5078503;28;20795;-57
2021/05/07 09:39:11;;;;;;;2.50;2.30;;;10.60;1.00;;;;;;5073679;28;20953;-56
2021/05/07 09:41:45;;;;;;;1.60;1.50;;;10.30;1.00;;;;;;5069573;28;20933;-57
2021/05/07 09:44:21;;;;;;;0.83;0.83;;;10.20;1.00;;;;;;5071952;28;20440;-56
2021/05/07 09:46:48;;;;;;;0.90;0.90;;;10.20;1.00;;;;;;5071902;28;20473;-55
2021/05/07 09:49:26;;;;;;;1.10;1.00;;;10.20;1.00;;;;;;5072776;28;20499;-56
2021/05/07 09:51:53;;;;;;;1.10;1.00;;;10.50;1.00;;;;;;5073929;28;20447;-55
2021/05/07 09:54:19;;;;;;;1.27;1.17;;;10.90;1.00;;;;;;5066968;28;20508;-57
2021/05/07 09:56:44;;;;;;;1.00;0.70;;;10.90;1.00;;;;;;5066600;28;20432;-55
2021/05/07 09:59:12;;;;;;;0.87;0.87;;;10.50;1.00;;;;;;5072711;28;20906;-55
2021/05/07 10:01:38;;;;;;;1.07;1.07;;;10.20;1.00;;;;;;5092117;28;20608;-57
2021/05/07 10:04:04;;;;;;;1.13;1.10;;;10.60;1.00;;;;;;5075164;28;20432;-56
2021/05/07 10:06:32;;;;;;;0.87;0.70;;;10.60;1.00;;;;;;5086847;28;20478;-57
2021/05/07 10:08:59;;;;;;;1.67;0.80;;;10.60;1.00;;;;;;5073893;28;20472;-57
2021/05/07 10:11:33;;;;;;;2.70;0.80;;;10.60;1.00;;;;;;5082553;28;20533;-57
2021/05/07 10:14:05;;;;;;;0.83;0.83;;;10.50;1.00;;;;;;5069738;28;20623;-58
2021/05/07 10:16:31;;;;;;;0.87;0.83;;;10.90;1.00;;;;;;5070522;28;20531;-57
2021/05/07 10:19:07;;;;;;;1.33;1.23;;;10.90;1.00;;;;;;5070315;28;20535;-57
2021/05/07 10:21:43;;;;;;;1.80;1.00;;;10.50;1.00;;;;;;5084250;28;20186;-57
2021/05/07 10:24:16;;;;;;;1.13;1.03;;;10.50;1.00;;;;;;5075841;28;20455;-58
2021/05/07 10:26:43;;;;;;;1.50;1.40;;;10.40;1.00;;;;;;5069831;28;20451;-56
2021/05/07 10:29:25;;;;;;;1.50;1.40;;;10.40;1.00;;;;;;5078066;28;20497;-57
2021/05/07 10:31:53;;;;;;;1.33;1.23;;;10.20;1.00;;;;;;5089372;28;20441;-58
2021/05/07 10:34:20;;;;;;;2.13;1.53;;;9.80;1.00;;;;;;5086473;28;20989;-57
2021/05/07 10:36:48;;;;;;;1.63;1.53;;;9.60;1.00;;;;;;5090954;28;20835;-58
2021/05/07 10:39:21;;;;;;;2.70;1.60;;;9.80;1.00;;;;;;5070108;28;20474;-57
2021/05/07 10:41:48;;;;;;;1.77;1.40;;;10.10;1.00;;;;;;5071156;28;20468;-58
2021/05/07 10:44:15;;;;;;;1.73;1.20;;;10.40;1.00;;;;;;5071218;28;20434;-57
2021/05/07 10:46:42;;;;;;;2.93;1.80;;;10.80;1.00;;;;;;5072256;28;20467;-57
2021/05/07 10:49:08;;;;;;;2.23;2.13;;;10.80;1.00;;;;;;5080467;28;20501;-59
2021/05/07 10:51:34;;;;;;;1.43;1.33;;;10.90;1.00;;;;;;5071983;28;20471;-59
2021/05/07 10:54:10;;;;;;;2.17;1.80;;;10.70;1.00;;;;;;5084622;28;20960;-58
2021/05/07 10:56:38;;;;;;;3.43;2.23;;;10.60;1.00;;;;;;5082550;28;20541;-57
2021/05/07 10:59:14;;;;;;;2.43;2.23;;;10.70;1.00;;;;;;5082549;28;20772;-57
2021/05/07 11:01:40;;;;;;;2.67;2.17;;;10.90;1.00;;;;;;5079297;28;20952;-57
2021/05/07 11:04:11;;;;;;;2.37;2.17;;;10.90;1.00;;;;;;5070988;28;20975;-57
2021/05/07 11:06:37;;;;;;;2.87;2.10;;;11.10;1.00;;;;;;5089018;28;20432;-58
2021/05/07 11:09:16;;;;;;;3.30;2.97;;;10.70;1.00;;;;;;5079602;28;20518;-57
2021/05/07 11:11:43;;;;;;;2.60;2.40;;;10.60;1.00;;;;;;5072082;28;20435;-57
2021/05/07 11:14:11;;;;;;;2.90;2.70;;;10.30;1.00;;;;;;5071389;28;20520;-59
2021/05/07 11:16:39;;;;;;;3.10;2.20;;;10.40;1.00;;;;;;5082997;28;20462;-58
2021/05/07 11:19:04;;;;;;;3.60;3.30;;;10.60;1.00;;;;;;5071027;28;20556;-58
2021/05/07 11:21:30;;;;;;;5.50;3.70;;;10.80;1.00;;;;;;5071985;28;21021;-57
2021/05/07 11:23:56;;;;;;;3.40;3.10;;;11.00;1.00;;;;;;5073646;28;20643;-58
2021/05/07 11:26:36;;;;;;;3.30;3.07;;;11.10;1.00;;;;;;5083958;28;20221;-57
2021/05/07 11:29:02;;;;;;;3.83;3.27;;;11.10;1.00;;;;;;5078728;28;20525;-58
2021/05/07 11:31:27;;;;;;;3.40;3.10;;;11.10;1.00;;;;;;5076754;28;20514;-57
2021/05/07 11:33:53;;;;;;;3.53;3.20;;;11.10;1.00;;;;;;5082941;28;20186;-58
2021/05/07 11:36:19;;;;;;;3.37;3.17;;;11.30;1.00;;;;;;5083852;28;20181;-57
2021/05/07 11:38:45;;;;;;;3.50;2.97;;;10.80;1.00;;;;;;5077376;28;20195;-58
2021/05/07 11:41:17;;;;;;;3.23;2.93;;;10.70;1.00;;;;;;5070438;28;20187;-60
2021/05/07 11:43:43;;;;;;;3.63;3.33;;;10.50;1.00;;;;;;5071163;28;20440;-57
2021/05/07 11:46:09;;;;;;;3.80;3.50;;;10.30;1.00;;;;;;5078339;28;20534;-57
2021/05/07 11:48:36;;;;;;;2.47;2.20;;;10.20;1.00;;;;;;5069426;28;20205;-58
2021/05/07 11:51:09;;;;;;;2.63;2.43;;;10.00;1.00;;;;;;5072685;28;20281;-57
2021/05/07 11:53:35;;;;;;;2.97;2.40;;;10.00;1.00;;;;;;5083378;28;20443;-58
2021/05/07 11:56:02;;;;;;;2.77;2.57;;;10.30;1.00;;;;;;5072529;28;20805;-57
2021/05/07 11:58:37;;;;;;;3.67;3.03;;;10.60;1.00;;;;;;5084575;28;20187;-58
2021/05/07 12:01:06;;;;;;;3.33;3.03;;;10.60;1.00;;;;;;5069056;28;20454;-57
2021/05/07 12:03:41;;;;;;;3.40;3.10;;;10.60;1.00;;;;;;5083724;28;20439;-57
2021/05/07 12:06:28;;;;;;;3.70;3.40;;;10.50;1.00;;;;;;5091309;28;20472;-57
2021/05/07 12:08:55;;;;;;;4.10;3.70;;;10.50;1.00;;;;;;5086293;28;20472;-57
2021/05/07 12:11:21;;;;;;;4.90;4.40;;;10.80;1.00;;;;;;5082304;28;20917;-58
2021/05/07 12:13:47;;;;;;;4.17;3.77;;;11.50;1.00;;;;;;5073312;28;20450;-56
2021/05/07 12:16:14;;;;;;;5.20;3.93;;;11.40;1.00;;;;;;5070516;28;20198;-57
2021/05/07 12:18:52;;;;;;;4.80;3.77;;;11.80;1.00;;;;;;5070206;28;20456;-57
2021/05/07 12:21:17;;;;;;;4.30;3.90;;;11.60;1.00;;;;;;5073970;28;20460;-57
2021/05/07 12:23:49;;;;;;;4.03;3.70;;;11.30;1.00;;;;;;5069575;28;20440;-59
2021/05/07 12:26:15;;;;;;;4.17;3.70;;;11.40;1.00;;;;;;5070573;28;20224;-57
2021/05/07 12:28:42;;;;;;;4.60;4.20;;;;;;;;;;5073577;28;20452;-59
2021/05/07 12:31:09;;;;;;;4.50;4.10;;;11.70;1.00;;;;;;5072941;28;20461;-58
2021/05/07 12:33:36;;;;;;;4.03;3.63;;;12.10;1.00;;;;;;5082013;28;20437;-57
2021/05/07 12:36:14;;;;;;;4.70;4.27;;;12.00;1.00;;;;;;5078913;28;20814;-57
2021/05/07 12:38:39;;;;;;;4.77;4.30;;;12.10;1.00;;;;;;5090279;28;20465;-57
2021/05/07 12:41:08;;;;;;;4.70;4.30;;;11.90;1.00;;;;;;5066826;28;20541;-58
2021/05/07 12:43:36;;;;;;;5.13;4.63;;;11.60;1.00;;;;;;5070919;28;20187;-57
2021/05/07 12:46:02;;;;;;;5.17;4.47;;;11.30;1.00;;;;;;5070699;28;20431;-57
2021/05/07 12:48:27;;;;;;;4.67;4.27;;;10.90;1.00;;;;;;5069525;28;20478;-57
2021/05/07 12:50:54;;;;;;;4.97;4.47;;;10.70;1.00;;;;;;5068531;28;20436;-57
2021/05/07 12:53:22;;;;;;;5.30;4.80;;;10.40;1.00;;;;;;5085729;28;20638;-60
2021/05/07 12:55:48;;;;;;;5.40;4.90;;;10.50;1.00;;;;;;5077543;28;20502;-61
2021/05/07 12:58:15;;;;;;;4.53;4.13;;;10.70;1.00;;;;;;5069355;28;20479;-60